createdAt,value
2019-01-14T00:01:47.622Z,99458.05
2019-01-14T00:04:16.468Z,99463.70
2019-01-14T00:06:47.477Z,99458.69
2019-01-14T00:09:23.069Z,99481.64
2019-01-14T00:11:47.375Z,99486.09
2019-01-14T00:14:16.224Z,99487.52
2019-01-14T00:16:45.077Z,99483.80
2019-01-14T00:19:13.964Z,99508.64
2019-01-14T00:21:42.844Z,99512.98
2019-01-14T00:24:13.158Z,99499.70
2019-01-14T00:26:42.425Z,99515.52
2019-01-14T00:29:11.650Z,99524.38
2019-01-14T00:31:40.618Z,99533.20
2019-01-14T00:34:09.746Z,99535.52
2019-01-14T00:36:38.644Z,99531.72
2019-01-14T00:39:08.190Z,99532.91
2019-01-14T00:41:37.145Z,99545.47
2019-01-14T00:44:06.034Z,99548.59
2019-01-14T00:46:34.952Z,99568.31
2019-01-14T00:49:04.822Z,99567.59
2019-01-14T00:51:33.757Z,99585.17
2019-01-14T00:54:02.721Z,99577.64
2019-01-14T00:56:31.709Z,99592.63
2019-01-14T00:59:00.741Z,99593.23
2019-01-14T01:01:29.628Z,99614.44
2019-01-14T01:03:58.584Z,99620.59
2019-01-14T01:06:27.447Z,99637.58
2019-01-14T01:08:56.227Z,99640.48
2019-01-14T01:11:25.110Z,99638.70
2019-01-14T01:13:53.987Z,99648.53
2019-01-14T01:16:22.889Z,99650.94
2019-01-14T01:18:52.040Z,99656.06
2019-01-14T01:21:20.900Z,99677.27
2019-01-14T01:23:49.786Z,99669.05
2019-01-14T01:26:18.640Z,99701.30
2019-01-14T01:28:47.684Z,99699.80
2019-01-14T01:31:17.822Z,99714.27
2019-01-14T01:33:47.617Z,99717.89
2019-01-14T01:36:16.485Z,99718.90
2019-01-14T01:38:47.482Z,99719.50
2019-01-14T01:41:16.503Z,99732.88
2019-01-14T01:43:47.426Z,99724.23
2019-01-14T01:46:16.322Z,99741.00
2019-01-14T01:48:46.496Z,99743.91
2019-01-14T01:51:15.448Z,99751.45
2019-01-14T01:54:31.990Z,99756.47
2019-01-14T01:57:01.099Z,99770.55
2019-01-14T01:59:29.946Z,99763.64
2019-01-14T02:01:58.786Z,99758.58
2019-01-14T02:04:27.643Z,99777.60
2019-01-14T02:06:57.705Z,99778.31
2019-01-14T02:09:26.613Z,99783.11
2019-01-14T02:11:55.479Z,99778.20
2019-01-14T02:14:24.340Z,99786.95
2019-01-14T02:16:53.386Z,99791.45
2019-01-14T02:19:22.523Z,99795.06
2019-01-14T02:21:51.521Z,99799.49
2019-01-14T02:24:22.854Z,99805.48
2019-01-14T02:26:51.846Z,99800.36
2019-01-14T02:29:20.711Z,99799.39
2019-01-14T02:31:49.559Z,99803.61
2019-01-14T02:34:18.342Z,99818.38
2019-01-14T02:36:48.571Z,99813.26
2019-01-14T02:39:17.719Z,99821.86
2019-01-14T02:41:46.496Z,99821.97
2019-01-14T02:44:15.384Z,99836.53
2019-01-14T02:46:44.490Z,99832.91
2019-01-14T02:49:13.381Z,99851.09
2019-01-14T02:51:42.866Z,99852.09
2019-01-14T02:54:11.673Z,99848.08
2019-01-14T02:56:40.549Z,99852.50
2019-01-14T02:59:09.522Z,99861.55
2019-01-14T03:01:38.371Z,99858.42
2019-01-14T03:04:19.457Z,99866.52
2019-01-14T03:06:57.602Z,99861.64
2019-01-14T03:09:47.262Z,99855.22
2019-01-14T03:12:16.435Z,99864.50
2019-01-14T03:14:45.316Z,99857.47
2019-01-14T03:17:14.012Z,99858.44
2019-01-14T03:19:42.922Z,99865.67
2019-01-14T03:22:16.175Z,99863.20
2019-01-14T03:24:45.587Z,99866.52
2019-01-14T03:27:16.748Z,99872.24
2019-01-14T03:29:46.770Z,99881.48
2019-01-14T03:32:18.529Z,99874.16
2019-01-14T03:34:49.674Z,99892.17
2019-01-14T03:37:18.451Z,99892.52
2019-01-14T03:39:47.322Z,99915.91
2019-01-14T03:42:16.193Z,99915.44
2019-01-14T03:44:45.011Z,99922.82
2019-01-14T03:47:13.880Z,99920.88
2019-01-14T03:49:43.170Z,99935.52
2019-01-14T03:52:12.115Z,99954.25
2019-01-14T03:54:41.142Z,99944.70
2019-01-14T03:57:11.532Z,99954.38
2019-01-14T03:59:40.888Z,99964.13
2019-01-14T04:02:10.288Z,99966.39
2019-01-14T04:04:39.259Z,99982.92
2019-01-14T04:07:13.575Z,99970.99
2019-01-14T04:09:39.884Z,99989.02
2019-01-14T04:12:08.796Z,99976.33
2019-01-14T04:14:37.680Z,99987.59
2019-01-14T04:17:06.527Z,99980.39
2019-01-14T04:19:35.464Z,99981.62
2019-01-14T04:22:07.104Z,99989.06
2019-01-14T04:24:36.274Z,99988.30
2019-01-14T04:27:05.455Z,100005.83
2019-01-14T04:29:34.330Z,100011.42
2019-01-14T04:32:03.748Z,100001.30
2019-01-14T04:34:32.498Z,100000.23
2019-01-14T04:37:01.799Z,100005.71
2019-01-14T04:39:31.041Z,99999.30
2019-01-14T04:42:00.235Z,99994.32
2019-01-14T04:44:29.362Z,99993.89
2019-01-14T04:46:58.356Z,99977.36
2019-01-14T04:49:28.025Z,99997.42
2019-01-14T04:51:57.046Z,99986.49
2019-01-14T04:54:28.711Z,100001.03
2019-01-14T04:56:57.597Z,100012.77
2019-01-14T04:59:28.782Z,99998.38
2019-01-14T05:01:57.697Z,100007.17
2019-01-14T05:04:26.494Z,100005.21
2019-01-14T05:06:57.424Z,100012.55
2019-01-14T05:09:27.275Z,100018.30
2019-01-14T05:11:57.451Z,100031.84
2019-01-14T05:14:27.249Z,100037.52
2019-01-14T05:16:58.159Z,100041.86
2019-01-14T05:19:27.150Z,100041.55
2019-01-14T05:21:58.377Z,100048.45
2019-01-14T05:24:27.626Z,100042.30
2019-01-14T05:26:56.512Z,100066.52
2019-01-14T05:29:25.302Z,100068.02
2019-01-14T05:31:54.159Z,100069.12
2019-01-14T05:34:23.023Z,100056.34
2019-01-14T05:36:51.982Z,100061.36
2019-01-14T05:39:20.773Z,100069.13
2019-01-14T05:41:49.719Z,100065.89
2019-01-14T05:44:18.835Z,100070.49
2019-01-14T05:46:47.738Z,100077.25
2019-01-14T05:49:17.155Z,100081.66
2019-01-14T05:51:47.191Z,100078.41
2019-01-14T05:54:16.052Z,100089.20
2019-01-14T05:56:44.934Z,100087.69
2019-01-14T05:59:13.689Z,100089.98
2019-01-14T06:01:44.539Z,100106.33
2019-01-14T06:04:13.962Z,100107.63
2019-01-14T06:06:42.899Z,100106.45
2019-01-14T06:09:12.061Z,100098.50
2019-01-14T06:11:41.371Z,100100.20
2019-01-14T06:14:12.439Z,100107.01
2019-01-14T06:16:42.362Z,100105.27
2019-01-14T06:19:13.866Z,100101.92
2019-01-14T06:21:44.586Z,100118.37
2019-01-14T06:24:13.951Z,100123.03
2019-01-14T06:26:45.661Z,100123.11
2019-01-14T06:29:14.685Z,100118.33
2019-01-14T06:31:43.846Z,100112.61
2019-01-14T06:34:13.609Z,100124.36
2019-01-14T06:36:42.562Z,100143.46
2019-01-14T06:39:12.625Z,100149.33
2019-01-14T06:41:41.910Z,100154.39
2019-01-14T06:44:10.905Z,100156.50
2019-01-14T06:46:40.717Z,100160.42
2019-01-14T06:49:09.568Z,100156.20
2019-01-14T06:51:38.301Z,100148.13
2019-01-14T06:54:07.360Z,100155.88
2019-01-14T06:56:36.779Z,100159.86
2019-01-14T06:59:07.903Z,100168.18
2019-01-14T07:01:37.830Z,100171.47
2019-01-14T07:04:07.967Z,100173.36
2019-01-14T07:06:36.884Z,100177.41
2019-01-14T07:09:07.982Z,100182.31
2019-01-14T07:11:39.969Z,100191.75
2019-01-14T07:14:08.843Z,100206.06
2019-01-14T07:16:37.801Z,100209.59
2019-01-14T07:19:06.681Z,100207.74
2019-01-14T07:21:35.562Z,100215.94
2019-01-14T07:24:04.746Z,100207.80
2019-01-14T07:26:33.702Z,100214.27
2019-01-14T07:29:06.415Z,100243.13
2019-01-14T07:31:35.456Z,100256.34
2019-01-14T07:34:05.499Z,100263.20
2019-01-14T07:36:34.443Z,100258.73
2019-01-14T07:39:05.593Z,100267.98
2019-01-14T07:41:34.584Z,100267.39
2019-01-14T07:44:04.114Z,100262.55
2019-01-14T07:46:33.086Z,100256.70
2019-01-14T07:49:01.874Z,100264.88
2019-01-14T07:51:32.268Z,100269.90
2019-01-14T07:54:01.239Z,100262.00
2019-01-14T07:56:30.162Z,100258.59
2019-01-14T07:58:59.352Z,100273.51
2019-01-14T08:01:28.253Z,100272.20
2019-01-14T08:03:57.111Z,100283.56
2019-01-14T08:06:28.139Z,100284.65
2019-01-14T08:08:57.372Z,100289.05
2019-01-14T08:11:31.860Z,100299.52
2019-01-14T08:14:01.277Z,100307.11
2019-01-14T08:16:32.453Z,100306.13
2019-01-14T08:19:01.393Z,100314.16
2019-01-14T08:21:30.546Z,100327.85
2019-01-14T08:23:59.497Z,100328.34
2019-01-14T08:26:29.514Z,100340.34
2019-01-14T08:28:58.535Z,100343.23
2019-01-14T08:31:27.437Z,100357.03
2019-01-14T08:33:56.235Z,100370.05
2019-01-14T08:36:25.136Z,100367.80
2019-01-14T08:38:54.019Z,100363.62
2019-01-14T08:41:25.329Z,100365.63
2019-01-14T08:43:57.999Z,100365.34
2019-01-14T08:46:27.409Z,100370.09
2019-01-14T08:48:56.261Z,100367.34
2019-01-14T08:51:26.859Z,100363.89
2019-01-14T08:53:55.734Z,100357.56
2019-01-14T08:56:24.651Z,100366.47
2019-01-14T08:58:53.537Z,100366.61
2019-01-14T09:01:22.398Z,100363.34
2019-01-14T09:03:51.298Z,100376.30
2019-01-14T09:06:20.223Z,100367.27
2019-01-14T09:08:49.195Z,100378.88
2019-01-14T09:11:18.035Z,100368.14
2019-01-14T09:13:46.941Z,100379.05
2019-01-14T09:16:15.820Z,100371.88
2019-01-14T09:18:44.984Z,100381.62
2019-01-14T09:21:13.861Z,100372.50
2019-01-14T09:23:44.034Z,100366.21
2019-01-14T09:26:14.086Z,100351.78
2019-01-14T09:28:43.596Z,100358.07
2019-01-14T09:31:12.549Z,100362.61
2019-01-14T09:33:41.488Z,100364.05
2019-01-14T09:36:10.471Z,100368.63
2019-01-14T09:38:39.370Z,100375.47
2019-01-14T09:41:08.229Z,100374.88
2019-01-14T09:43:37.437Z,100382.44
2019-01-14T09:46:06.824Z,100394.80
2019-01-14T09:48:35.782Z,100397.01
2019-01-14T09:51:05.072Z,100411.03
2019-01-14T09:53:34.009Z,100407.94
2019-01-14T09:56:02.905Z,100400.42
2019-01-14T09:58:31.774Z,100407.62
2019-01-14T10:01:00.681Z,100413.72
2019-01-14T10:03:29.624Z,100419.93
2019-01-14T10:05:58.578Z,100428.34
2019-01-14T10:08:27.526Z,100422.18
2019-01-14T10:10:56.406Z,100432.22
2019-01-14T10:13:25.349Z,100423.25
2019-01-14T10:15:54.466Z,100441.47
2019-01-14T10:18:25.762Z,100439.56
2019-01-14T10:20:56.695Z,100453.45
2019-01-14T10:23:25.653Z,100447.77
2019-01-14T10:25:54.643Z,100446.69
2019-01-14T10:28:23.591Z,100442.81
2019-01-14T10:30:54.779Z,100438.58
2019-01-14T10:33:23.872Z,100431.43
2019-01-14T10:35:54.079Z,100435.20
2019-01-14T10:38:23.097Z,100434.53
2019-01-14T10:40:51.991Z,100439.05
2019-01-14T10:43:23.525Z,100431.92
2019-01-14T10:45:53.951Z,100436.17
2019-01-14T10:48:23.644Z,100433.74
2019-01-14T10:50:52.630Z,100442.10
2019-01-14T10:53:22.269Z,100435.63
2019-01-14T10:55:51.282Z,100445.88
2019-01-14T10:58:20.286Z,100458.69
2019-01-14T11:00:49.260Z,100450.47
2019-01-14T11:03:18.139Z,100459.42
2019-01-14T11:05:49.596Z,100448.83
2019-01-14T11:09:05.781Z,100454.59
2019-01-14T11:11:31.532Z,100460.89
2019-01-14T11:14:00.609Z,100473.72
2019-01-14T11:16:29.507Z,100472.41
2019-01-14T11:19:16.370Z,100467.73
2019-01-14T11:21:45.255Z,100473.95
2019-01-14T11:24:14.167Z,100476.25
2019-01-14T11:26:43.041Z,100470.20
2019-01-14T11:29:12.650Z,100486.91
2019-01-14T11:31:41.545Z,100496.12
2019-01-14T11:34:10.454Z,100488.94
2019-01-14T11:36:39.382Z,100498.33
2019-01-14T11:39:17.424Z,100498.55
2019-01-14T11:41:46.365Z,100513.84
2019-01-14T11:44:15.311Z,100517.02
2019-01-14T11:46:44.109Z,100519.91
2019-01-14T11:49:13.011Z,100508.14
2019-01-14T11:51:41.925Z,100527.38
2019-01-14T11:54:10.860Z,100534.80
2019-01-14T11:56:39.852Z,100533.31
2019-01-14T11:59:08.724Z,100538.51
2019-01-14T12:01:37.677Z,100546.34
2019-01-14T12:04:06.613Z,100534.63
2019-01-14T12:06:35.473Z,100547.38
2019-01-14T12:09:12.193Z,100545.63
2019-01-14T12:11:38.861Z,100556.92
2019-01-14T12:14:07.804Z,100553.05
2019-01-14T12:16:36.679Z,100572.09
2019-01-14T12:19:05.556Z,100553.27
2019-01-14T12:21:34.479Z,100550.88
2019-01-14T12:24:04.558Z,100561.54
2019-01-14T12:26:33.563Z,100556.66
2019-01-14T12:29:05.111Z,100545.27
2019-01-14T12:31:34.936Z,100560.44
2019-01-14T13:34:35.144Z,100636.31
2019-01-14T13:37:04.158Z,100643.22
2019-01-14T13:39:52.515Z,100653.87
2019-01-14T13:42:19.272Z,100657.64
2019-01-14T13:44:48.218Z,100651.44
2019-01-14T13:47:17.161Z,100655.03
2019-01-14T13:49:46.228Z,100663.59
2019-01-14T13:52:15.094Z,100674.20
2019-01-14T13:54:44.011Z,100661.79
2019-01-14T13:57:13.046Z,100677.03
2019-01-14T13:59:41.950Z,100675.09
2019-01-14T14:05:38.352Z,100687.29
2019-01-14T14:08:07.468Z,100688.77
2019-01-14T14:10:36.422Z,100690.34
2019-01-14T14:13:05.414Z,100691.30
2019-01-14T14:15:34.499Z,100694.58
2019-01-14T14:18:03.564Z,100694.32
2019-01-14T14:20:32.518Z,100693.98
2019-01-14T14:23:01.478Z,100693.34
2019-01-14T14:25:30.469Z,100698.56
2019-01-14T14:27:59.454Z,100698.37
2019-01-14T14:30:39.475Z,100708.33
2019-01-14T14:33:08.471Z,100712.41
2019-01-14T14:35:37.403Z,100711.94
2019-01-14T14:38:07.869Z,100724.47
2019-01-14T14:40:36.756Z,100726.32
2019-01-14T14:43:05.741Z,100731.17
2019-01-14T14:45:34.785Z,100751.70
2019-01-14T14:48:03.823Z,100745.69
2019-01-14T14:50:32.729Z,100742.25
2019-01-14T14:53:01.560Z,100746.80
2019-01-14T14:55:30.580Z,100754.31
2019-01-14T14:57:59.493Z,100756.42
2019-01-14T15:00:28.487Z,100756.25
2019-01-14T15:02:57.516Z,100763.45
2019-01-14T15:05:26.381Z,100767.05
2019-01-14T15:07:55.360Z,100765.59
2019-01-14T15:10:24.433Z,100774.07
2019-01-14T15:12:53.514Z,100777.81
2019-01-14T15:15:24.179Z,100781.23
2019-01-14T15:17:53.177Z,100788.59
2019-01-14T15:20:23.692Z,100789.56
2019-01-14T15:23:40.249Z,100790.88
2019-01-14T15:26:09.512Z,100792.49
2019-01-14T15:28:38.360Z,100790.38
2019-01-14T15:31:07.333Z,100798.36
2019-01-14T15:33:36.275Z,100793.30
2019-01-14T15:36:06.759Z,100795.77
2019-01-14T15:38:35.675Z,100785.36
2019-01-14T15:41:04.645Z,100794.97
2019-01-14T15:43:33.458Z,100805.56
2019-01-14T15:46:02.429Z,100800.67
2019-01-14T15:48:31.440Z,100803.11
2019-01-14T15:51:00.376Z,100816.95
2019-01-14T15:53:29.389Z,100818.09
2019-01-14T15:56:04.293Z,100817.77
2019-01-14T15:58:33.339Z,100829.17
2019-01-14T16:01:02.406Z,100825.44
2019-01-14T16:03:31.340Z,100828.67
2019-01-14T16:06:00.312Z,100824.13
2019-01-14T16:08:29.310Z,100822.50
2019-01-14T16:10:58.174Z,100833.58
2019-01-14T16:13:27.078Z,100838.96
2019-01-14T16:15:55.892Z,100840.09
2019-01-14T16:18:24.769Z,100850.86
2019-01-14T16:20:53.662Z,100856.38
2019-01-14T16:23:22.558Z,100852.14
2019-01-14T16:25:51.573Z,100846.59
2019-01-14T16:28:20.472Z,100860.31
2019-01-14T16:30:49.391Z,100855.09
2019-01-14T16:33:18.319Z,100860.95
2019-01-14T16:35:47.206Z,100861.92
2019-01-14T16:38:16.176Z,100866.16
2019-01-14T16:40:45.124Z,100868.27
2019-01-14T16:43:14.157Z,100864.69
2019-01-14T16:49:23.229Z,100870.72
2019-01-14T16:51:52.338Z,100878.86
2019-01-14T16:54:21.433Z,100877.56
2019-01-14T16:57:26.180Z,100883.23
2019-01-14T16:59:55.128Z,100882.10
2019-01-14T17:02:24.688Z,100891.73
2019-01-14T17:04:53.685Z,100890.59
2019-01-14T17:07:22.748Z,100893.53
2019-01-14T17:09:51.769Z,100901.48
2019-01-14T17:12:20.866Z,100901.34
2019-01-14T17:14:49.820Z,100915.48
2019-01-14T17:17:18.896Z,100918.91
2019-01-14T17:19:47.879Z,100917.61
2019-01-14T17:22:18.353Z,100916.47
2019-01-14T17:24:47.382Z,100913.70
2019-01-14T17:27:16.354Z,100916.62
2019-01-14T17:29:45.288Z,100931.31
2019-01-14T17:32:14.157Z,100930.31
2019-01-14T17:34:43.115Z,100933.27
2019-01-14T17:37:12.016Z,100944.97
2019-01-14T17:39:41.029Z,100954.73
2019-01-14T17:42:10.427Z,100950.18
2019-01-14T17:44:39.271Z,100957.87
2019-01-14T17:47:08.283Z,100946.27
2019-01-14T17:49:43.046Z,100956.08
2019-01-14T17:52:12.042Z,100946.30
2019-01-14T17:54:41.026Z,100954.12
2019-01-14T17:57:10.061Z,100960.31
2019-01-14T17:59:59.758Z,100959.14
2019-01-14T18:02:28.725Z,100975.27
2019-01-14T18:04:57.783Z,100980.02
2019-01-14T18:07:26.818Z,100988.00
2019-01-14T18:09:56.017Z,100987.84
2019-01-14T18:12:25.194Z,100988.66
2019-01-14T18:14:54.240Z,100981.81
2019-01-14T18:17:23.303Z,100998.27
2019-01-14T18:19:52.282Z,100983.77
2019-01-14T18:22:21.311Z,100987.84
2019-01-14T18:24:50.349Z,100993.88
2019-01-14T18:27:19.407Z,101000.70
2019-01-14T18:29:48.662Z,100995.45
2019-01-14T18:32:17.660Z,101010.93
2019-01-14T18:34:46.927Z,101001.97
2019-01-14T18:37:15.904Z,101004.25
2019-01-14T18:39:53.908Z,101013.37
2019-01-14T18:42:22.974Z,101013.74
2019-01-14T18:44:52.076Z,101014.23
2019-01-14T18:47:21.137Z,101014.72
2019-01-14T18:49:50.241Z,101022.86
2019-01-14T18:52:19.484Z,101023.03
2019-01-14T18:54:49.891Z,101031.51
2019-01-14T18:57:19.005Z,101034.61
2019-01-14T18:59:48.253Z,101024.55
2019-01-14T19:02:17.653Z,101020.63
2019-01-14T19:04:46.851Z,101029.23
2019-01-14T19:07:15.932Z,101022.23
2019-01-14T19:09:45.327Z,101024.22
2019-01-14T19:12:14.638Z,101022.27
2019-01-14T19:14:43.501Z,101022.43
2019-01-14T19:17:12.668Z,101034.81
2019-01-14T19:19:41.914Z,101032.86
2019-01-14T19:22:10.972Z,101031.88
2019-01-14T19:24:39.986Z,101044.10
2019-01-14T19:27:16.281Z,101048.18
2019-01-14T19:29:39.727Z,101044.75
2019-01-14T19:32:08.839Z,101053.55
2019-01-14T19:34:38.061Z,101058.44
2019-01-14T19:37:07.230Z,101063.65
2019-01-14T19:39:36.519Z,101064.95
2019-01-14T19:42:05.617Z,101067.89
2019-01-14T19:44:34.593Z,101080.45
2019-01-14T19:47:03.579Z,101075.88
2019-01-14T19:49:33.608Z,101084.36
2019-01-14T19:52:02.973Z,101074.91
2019-01-14T19:54:32.327Z,101081.26
2019-01-14T19:57:01.458Z,101081.59
2019-01-14T19:59:30.732Z,101087.13
2019-01-14T20:02:00.724Z,101091.36
2019-01-14T20:04:30.171Z,101095.00
2019-01-14T20:06:59.441Z,101088.31
2019-01-14T20:09:28.928Z,101096.09
2019-01-14T20:11:58.196Z,101093.33
2019-01-14T20:14:27.364Z,101101.20
2019-01-14T20:16:56.545Z,101099.07
2019-01-14T20:19:26.072Z,101112.60
2019-01-14T20:21:55.247Z,101101.36
2019-01-14T20:24:24.609Z,101101.69
2019-01-14T20:26:53.654Z,101099.73
2019-01-14T20:29:22.915Z,101095.66
2019-01-14T20:31:52.045Z,101102.17
2019-01-14T20:34:21.381Z,101101.03
2019-01-14T20:36:50.515Z,101103.48
2019-01-14T20:39:20.344Z,101097.73
2019-01-14T20:41:49.937Z,101099.23
2019-01-14T20:44:19.376Z,101098.26
2019-01-14T20:46:49.098Z,101106.58
2019-01-14T20:49:18.934Z,101097.61
2019-01-14T20:51:48.306Z,101103.48
2019-01-14T20:54:17.594Z,101103.66
2019-01-14T20:57:25.358Z,101103.84
2019-01-14T20:59:54.687Z,101106.30
2019-01-14T21:02:42.061Z,101112.00
2019-01-14T21:05:11.469Z,101102.88
2019-01-14T21:07:40.766Z,101111.19
2019-01-14T21:10:11.013Z,101110.86
2019-01-14T21:12:40.337Z,101112.82
2019-01-14T21:15:10.202Z,101111.35
2019-01-14T21:17:39.453Z,101117.22
2019-01-14T21:20:12.900Z,101116.89
2019-01-14T21:22:42.237Z,101110.38
2019-01-14T21:25:11.997Z,101119.02
2019-01-14T21:27:47.213Z,101114.62
2019-01-14T21:30:21.478Z,101121.01
2019-01-14T21:32:50.796Z,101120.20
2019-01-14T21:35:19.967Z,101133.57
2019-01-14T21:37:50.093Z,101128.16
2019-01-14T21:40:19.481Z,101121.34
2019-01-14T21:42:48.931Z,101128.31
2019-01-14T21:45:18.152Z,101125.09
2019-01-14T21:47:47.387Z,101134.22
2019-01-14T21:50:17.978Z,101131.25
2019-01-14T21:52:47.208Z,101139.89
2019-01-14T21:55:20.549Z,101136.80
2019-01-14T21:57:49.601Z,101129.81
2019-01-14T22:00:20.450Z,101145.95
2019-01-14T22:02:49.428Z,101137.77
2019-01-14T22:05:18.429Z,101146.61
2019-01-14T22:08:11.224Z,101140.58
2019-01-14T22:10:40.109Z,101146.78
2019-01-14T22:13:09.096Z,101134.19
2019-01-14T22:15:38.275Z,101150.17
2019-01-14T22:18:07.330Z,101143.03
2019-01-14T22:20:36.385Z,101147.43
2019-01-14T22:23:05.461Z,101148.25
2019-01-14T22:25:34.693Z,101143.84
2019-01-14T22:28:03.719Z,101154.60
2019-01-14T22:30:34.231Z,101154.45
2019-01-14T22:33:03.208Z,101143.19
2019-01-14T22:35:32.102Z,101144.01
2019-01-14T22:38:01.642Z,101143.68
2019-01-14T22:40:30.648Z,101149.23
2019-01-14T22:42:59.675Z,101145.64
2019-01-14T22:45:28.612Z,101147.14
2019-01-14T22:47:57.588Z,101150.41
2019-01-14T22:50:26.470Z,101151.87
2019-01-14T22:52:55.463Z,101139.96
2019-01-14T22:55:24.440Z,101144.98
2019-01-14T22:57:53.744Z,101147.30
2019-01-14T23:01:13.928Z,101148.77
2019-01-14T23:03:45.306Z,101159.86
2019-01-14T23:06:14.237Z,101161.83
2019-01-14T23:08:43.646Z,101164.59
2019-01-14T23:11:12.853Z,101152.84
2019-01-14T23:13:41.852Z,101158.72
2019-01-14T23:16:10.809Z,101151.90
2019-01-14T23:18:39.758Z,101164.59
2019-01-14T23:21:09.062Z,101177.52
2019-01-14T23:23:37.962Z,101176.05
2019-01-14T23:26:06.943Z,101166.58
2019-01-14T23:28:35.850Z,101172.13
2019-01-14T23:31:04.858Z,101179.47
2019-01-14T23:33:33.807Z,101171.31
2019-01-14T23:36:02.793Z,101166.58
2019-01-14T23:38:31.728Z,101165.77
2019-01-14T23:41:00.602Z,101169.52
2019-01-14T23:43:29.480Z,101163.48
2019-01-14T23:45:58.455Z,101160.70
2019-01-14T23:48:27.338Z,101164.62
2019-01-14T23:50:56.217Z,101170.82
2019-01-14T23:53:25.142Z,101177.84
2019-01-14T23:55:54.020Z,101179.64
2019-01-14T23:58:22.918Z,101168.87
